createdAt,value
2023-06-26T00:01:23.823Z,99997.13
2023-06-26T00:03:52.962Z,99982.09
2023-06-26T00:06:20.566Z,99984.03
2023-06-26T00:08:48.333Z,99986.47
2023-06-26T00:11:16.255Z,99986.19
2023-06-26T00:13:43.960Z,99982.66
2023-06-26T00:16:11.684Z,99981.84
2023-06-26T00:18:39.492Z,99982.41
2023-06-26T00:21:08.517Z,99977.44
2023-06-26T00:23:40.115Z,99974.97
2023-06-26T00:26:08.129Z,99971.16
2023-06-26T00:28:36.052Z,99968.44
2023-06-26T00:31:03.844Z,99975.78
2023-06-26T00:33:31.705Z,99975.78
2023-06-26T00:36:00.038Z,99972.22
2023-06-26T00:38:29.058Z,99973.03
2023-06-26T00:40:57.168Z,99970.56
2023-06-26T00:43:24.998Z,99982.31
2023-06-26T00:45:52.734Z,99979.28
2023-06-26T00:48:20.939Z,99980.66
2023-06-26T00:50:48.711Z,99971.66
2023-06-26T00:53:16.737Z,99976.25
2023-06-26T00:55:46.492Z,99978.50
2023-06-26T00:58:14.245Z,99978.75
2023-06-26T01:00:42.281Z,99970.25
2023-06-26T01:03:10.196Z,99965.59
2023-06-26T01:05:39.468Z,99964.56
2023-06-26T01:08:07.318Z,99963.47
2023-06-26T01:10:35.068Z,99959.94
2023-06-26T01:13:04.417Z,99961.81
2023-06-26T01:15:32.473Z,99951.97
2023-06-26T01:18:04.538Z,99956.63
2023-06-26T01:20:33.340Z,99963.31
2023-06-26T01:23:09.922Z,99952.97
2023-06-26T01:25:45.135Z,99957.03
2023-06-26T01:28:15.568Z,99946.94
2023-06-26T01:30:45.934Z,99949.63
2023-06-26T01:33:14.915Z,99950.44
2023-06-26T01:35:42.894Z,99944.94
2023-06-26T01:38:15.096Z,99930.22
2023-06-26T01:40:42.738Z,99939.44
2023-06-26T01:43:18.068Z,99942.44
2023-06-26T01:45:50.102Z,99942.97
2023-06-26T01:48:22.319Z,99947.00
2023-06-26T01:50:52.024Z,99943.69
2023-06-26T01:53:26.217Z,99935.75
2023-06-26T01:55:57.789Z,99947.22
2023-06-26T01:58:28.442Z,99940.94
2023-06-26T02:00:56.330Z,99930.88
2023-06-26T02:03:25.548Z,99935.50
2023-06-26T02:05:53.523Z,99926.44
2023-06-26T02:08:21.180Z,99927.22
2023-06-26T02:10:48.935Z,99926.91
2023-06-26T02:13:16.575Z,99928.53
2023-06-26T02:15:45.520Z,99928.75
2023-06-26T02:18:13.177Z,99930.63
2023-06-26T02:20:41.513Z,99931.75
2023-06-26T02:23:09.467Z,99933.53
2023-06-26T02:25:37.306Z,99934.91
2023-06-26T02:28:05.195Z,99946.00
2023-06-26T02:30:32.828Z,99935.19
2023-06-26T02:33:01.830Z,99930.28
2023-06-26T02:35:30.639Z,99935.72
2023-06-26T02:37:58.359Z,99935.13
2023-06-26T02:40:26.008Z,99937.28
2023-06-26T02:42:53.889Z,99937.28
2023-06-26T02:45:21.596Z,99936.72
2023-06-26T02:47:49.285Z,99942.91
2023-06-26T02:50:18.437Z,99937.69
2023-06-26T02:52:49.061Z,99943.97
2023-06-26T02:55:16.744Z,99935.75
2023-06-26T02:57:44.350Z,99939.81
2023-06-26T03:00:13.191Z,99937.66
2023-06-26T03:02:40.889Z,99937.91
2023-06-26T03:05:09.497Z,99932.19
2023-06-26T03:07:38.480Z,99928.41
2023-06-26T03:10:06.804Z,99925.13
2023-06-26T03:12:34.533Z,99923.53
2023-06-26T03:15:02.151Z,99927.03
2023-06-26T03:17:30.028Z,99926.66
2023-06-26T03:19:57.761Z,99926.69
2023-06-26T03:22:25.702Z,99916.97
2023-06-26T03:24:54.667Z,99910.97
2023-06-26T03:27:22.387Z,99922.88
2023-06-26T03:29:50.085Z,99914.41
2023-06-26T03:32:17.799Z,99920.16
2023-06-26T03:34:46.490Z,99920.38
2023-06-26T03:37:14.482Z,99921.31
2023-06-26T03:39:42.459Z,99918.63
2023-06-26T03:42:11.506Z,99913.16
2023-06-26T03:44:39.194Z,99916.44
2023-06-26T03:47:07.062Z,99919.97
2023-06-26T03:49:34.664Z,99915.84
2023-06-26T03:52:02.451Z,99922.13
2023-06-26T03:54:30.177Z,99913.00
2023-06-26T03:56:57.806Z,99912.31
2023-06-26T03:59:26.797Z,99915.94
2023-06-26T04:01:54.801Z,99919.56
2023-06-26T04:04:22.537Z,99916.53
2023-06-26T04:06:50.190Z,99917.44
2023-06-26T04:09:18.172Z,99906.09
2023-06-26T04:11:45.813Z,99915.44
2023-06-26T04:14:13.903Z,99914.91
2023-06-26T04:16:42.925Z,99916.63
2023-06-26T04:19:11.336Z,99904.94
2023-06-26T04:21:39.294Z,99911.06
2023-06-26T04:24:07.826Z,99916.97
2023-06-26T04:26:35.669Z,99918.34
2023-06-26T04:29:03.335Z,99919.34
2023-06-26T04:31:31.068Z,99916.66
2023-06-26T04:34:02.134Z,99915.28
2023-06-26T04:36:30.058Z,99913.06
2023-06-26T04:38:57.673Z,99911.91
2023-06-26T04:41:25.354Z,99920.09
2023-06-26T04:43:53.010Z,99914.59
2023-06-26T04:46:20.885Z,99910.31
2023-06-26T04:48:48.721Z,99914.22
2023-06-26T04:51:21.727Z,99904.50
2023-06-26T04:53:49.528Z,99908.41
2023-06-26T04:56:17.133Z,99911.88
2023-06-26T04:58:44.879Z,99917.16
2023-06-26T05:01:14.673Z,99912.88
2023-06-26T05:03:42.430Z,99900.19
2023-06-26T05:06:10.853Z,99899.50
2023-06-26T05:08:39.907Z,99904.91
2023-06-26T05:11:07.615Z,99904.13
2023-06-26T05:13:35.372Z,99904.31
2023-06-26T05:16:03.125Z,99901.31
2023-06-26T05:18:30.839Z,99907.78
2023-06-26T05:20:59.091Z,99913.63
2023-06-26T05:23:27.785Z,99903.91
2023-06-26T05:25:57.491Z,99905.78
2023-06-26T05:28:27.102Z,99915.53
2023-06-26T05:30:56.114Z,99908.88
2023-06-26T05:33:28.857Z,99921.63
2023-06-26T05:35:57.412Z,99919.97
2023-06-26T05:38:29.434Z,99918.72
2023-06-26T05:41:02.335Z,99916.13
2023-06-26T05:43:30.299Z,99913.06
2023-06-26T05:45:58.705Z,99922.28
2023-06-26T05:48:26.814Z,99923.53
2023-06-26T05:50:55.817Z,99923.31
2023-06-26T05:53:24.795Z,99921.63
2023-06-26T05:55:53.669Z,99924.63
2023-06-26T05:58:25.773Z,99919.97
2023-06-26T06:00:53.412Z,99923.13
2023-06-26T06:03:21.112Z,99931.91
2023-06-26T06:05:48.874Z,99932.75
2023-06-26T06:08:16.611Z,99929.91
2023-06-26T06:10:44.370Z,99927.50
2023-06-26T06:13:12.217Z,99923.09
2023-06-26T06:15:41.396Z,99925.19
2023-06-26T06:18:09.433Z,99919.09
2023-06-26T06:20:37.920Z,99921.25
2023-06-26T06:23:07.232Z,99923.84
2023-06-26T06:25:34.971Z,99927.00
2023-06-26T06:28:02.695Z,99924.03
2023-06-26T06:30:44.215Z,99923.44
2023-06-26T06:33:14.610Z,99930.63
2023-06-26T06:35:42.636Z,99937.47
2023-06-26T06:38:10.488Z,99929.25
2023-06-26T06:40:38.493Z,99925.78
2023-06-26T06:43:06.630Z,99921.69
2023-06-26T06:45:34.499Z,99928.81
2023-06-26T06:48:02.465Z,99924.38
2023-06-26T06:50:31.781Z,99926.63
2023-06-26T06:52:59.682Z,99915.06
2023-06-26T06:55:27.376Z,99914.59
2023-06-26T06:57:55.047Z,99920.13
2023-06-26T07:00:22.859Z,99918.50
2023-06-26T07:02:50.623Z,99924.84
2023-06-26T07:05:18.780Z,99932.38
2023-06-26T07:07:47.872Z,99927.22
2023-06-26T07:10:17.072Z,99929.91
2023-06-26T07:12:45.530Z,99936.28
2023-06-26T07:15:13.266Z,99932.31
2023-06-26T07:17:41.096Z,99926.03
2023-06-26T07:20:11.128Z,99925.03
2023-06-26T07:22:40.381Z,99921.41
2023-06-26T07:25:18.941Z,99916.53
2023-06-26T07:27:46.805Z,99917.41
2023-06-26T07:30:14.934Z,99920.16
2023-06-26T07:32:43.678Z,99925.91
2023-06-26T07:35:11.543Z,99926.31
2023-06-26T07:37:39.411Z,99926.88
2023-06-26T07:40:07.823Z,99929.72
2023-06-26T07:42:37.016Z,99924.09
2023-06-26T07:45:10.822Z,99933.84
2023-06-26T07:47:38.582Z,99933.00
2023-06-26T07:50:06.777Z,99923.53
2023-06-26T07:52:34.573Z,99923.28
2023-06-26T07:55:02.230Z,99930.78
2023-06-26T07:57:29.899Z,99925.56
2023-06-26T07:59:59.003Z,99920.38
2023-06-26T08:02:26.688Z,99913.94
2023-06-26T08:04:54.399Z,99912.81
2023-06-26T08:07:22.214Z,99920.69
2023-06-26T08:09:49.910Z,99911.56
2023-06-26T08:12:17.493Z,99907.34
2023-06-26T08:14:45.561Z,99919.47
2023-06-26T08:17:14.707Z,99901.56
2023-06-26T08:19:42.453Z,99901.53
2023-06-26T08:22:10.082Z,99906.81
2023-06-26T08:24:38.167Z,99909.78
2023-06-26T08:27:08.531Z,99910.69
2023-06-26T08:29:36.161Z,99909.25
2023-06-26T08:32:04.302Z,99919.06
2023-06-26T08:34:33.217Z,99920.72
2023-06-26T08:37:00.882Z,99913.91
2023-06-26T08:39:28.755Z,99921.44
2023-06-26T08:41:56.523Z,99919.78
2023-06-26T08:44:25.855Z,99919.59
2023-06-26T08:46:53.944Z,99922.16
2023-06-26T08:49:27.476Z,99933.34
2023-06-26T08:52:02.469Z,99930.03
2023-06-26T08:54:36.138Z,99931.69
2023-06-26T08:57:04.440Z,99935.84
2023-06-26T08:59:33.298Z,99930.56
2023-06-26T09:02:01.365Z,99931.66
2023-06-26T09:04:29.096Z,99927.78
2023-06-26T09:06:58.133Z,99923.66
2023-06-26T09:09:26.068Z,99920.97
2023-06-26T09:11:53.707Z,99928.66
2023-06-26T09:14:21.820Z,99929.16
2023-06-26T09:16:49.559Z,99930.03
2023-06-26T09:19:17.868Z,99922.72
2023-06-26T09:21:45.581Z,99917.72
2023-06-26T09:24:14.671Z,99922.66
2023-06-26T09:26:42.698Z,99919.13
2023-06-26T09:29:11.572Z,99932.81
2023-06-26T09:31:42.477Z,99928.25
2023-06-26T09:34:10.661Z,99932.63
2023-06-26T09:36:40.480Z,99917.13
2023-06-26T09:39:12.691Z,99939.38
2023-06-26T09:41:43.385Z,99939.47
2023-06-26T09:44:13.413Z,99941.06
2023-06-26T09:46:41.016Z,99943.00
2023-06-26T09:49:12.513Z,99928.53
2023-06-26T09:51:41.785Z,99943.97
2023-06-26T09:54:10.561Z,99945.00
2023-06-26T09:56:38.261Z,99943.75
2023-06-26T09:59:08.336Z,99946.88
2023-06-26T10:01:38.997Z,99944.91
2023-06-26T10:04:07.876Z,99944.13
2023-06-26T10:06:38.034Z,99947.50
2023-06-26T10:09:06.112Z,99958.38
2023-06-26T10:11:41.611Z,99948.44
2023-06-26T10:14:18.033Z,99939.13
2023-06-26T10:16:48.329Z,99951.44
2023-06-26T10:19:20.104Z,99950.59
2023-06-26T10:21:48.707Z,99943.63
2023-06-26T10:24:16.683Z,99950.72
2023-06-26T10:26:47.276Z,99953.72
2023-06-26T10:29:19.523Z,99962.50
2023-06-26T10:31:51.533Z,99959.19
2023-06-26T10:34:22.528Z,99961.56
2023-06-26T10:37:00.941Z,99947.06
2023-06-26T10:39:29.420Z,99949.59
2023-06-26T10:42:09.831Z,99942.88
2023-06-26T10:44:44.497Z,99955.66
2023-06-26T10:47:13.069Z,99947.22
2023-06-26T10:49:41.570Z,99934.63
2023-06-26T10:52:09.743Z,99939.47
2023-06-26T10:54:39.152Z,99944.09
2023-06-26T10:57:09.582Z,99938.47
2023-06-26T10:59:44.434Z,99945.31
2023-06-26T11:02:13.406Z,99954.25
2023-06-26T11:04:42.599Z,99955.53
2023-06-26T11:07:18.210Z,99960.44
2023-06-26T11:09:57.011Z,99954.00
2023-06-26T11:12:38.233Z,99962.44
2023-06-26T11:15:09.406Z,99957.91
2023-06-26T11:17:41.843Z,99956.78
2023-06-26T11:20:11.669Z,99962.47
2023-06-26T11:22:40.837Z,99958.59
2023-06-26T11:25:09.911Z,99947.59
2023-06-26T11:27:40.338Z,99949.06
2023-06-26T11:30:10.229Z,99960.44
2023-06-26T11:32:39.724Z,99946.59
2023-06-26T11:35:08.588Z,99958.13
2023-06-26T11:37:36.183Z,99949.34
2023-06-26T11:40:18.276Z,99959.59
2023-06-26T11:42:46.897Z,99961.41
2023-06-26T11:45:14.721Z,99961.09
2023-06-26T11:47:44.090Z,99962.50
2023-06-26T11:50:17.258Z,99962.31
2023-06-26T11:52:45.031Z,99962.88
2023-06-26T11:55:13.027Z,99961.41
2023-06-26T11:57:40.718Z,99969.22
2023-06-26T12:00:15.443Z,99963.97
2023-06-26T12:02:44.642Z,99958.94
2023-06-26T12:05:13.433Z,99964.88
2023-06-26T12:07:41.993Z,99966.19
2023-06-26T12:10:11.902Z,99963.78
2023-06-26T12:12:40.576Z,99966.41
2023-06-26T12:15:10.717Z,99963.53
2023-06-26T12:17:40.432Z,99962.63
2023-06-26T12:20:20.067Z,99963.47
2023-06-26T12:22:48.690Z,99967.19
2023-06-26T12:25:16.865Z,99963.59
2023-06-26T12:27:47.741Z,99958.47
2023-06-26T12:30:16.100Z,99970.47
2023-06-26T12:32:47.435Z,99964.13
2023-06-26T12:35:17.088Z,99966.16
2023-06-26T12:37:46.978Z,99973.00
2023-06-26T12:40:23.847Z,99975.16
2023-06-26T12:42:51.641Z,99970.97
2023-06-26T12:47:49.975Z,99972.50
2023-06-26T12:50:18.971Z,99977.88
2023-06-26T12:52:46.585Z,99974.28
2023-06-26T12:55:14.435Z,99975.97
2023-06-26T12:57:42.015Z,99975.47
2023-06-26T13:00:11.239Z,99967.59
2023-06-26T13:02:38.963Z,99977.50
2023-06-26T13:05:07.126Z,99988.50
2023-06-26T13:07:36.154Z,99990.63
2023-06-26T13:10:04.102Z,99986.38
2023-06-26T13:12:31.818Z,99993.50
2023-06-26T13:14:59.397Z,99994.38
2023-06-26T13:17:27.062Z,100001.38
2023-06-26T13:19:54.659Z,99991.47
2023-06-26T13:22:22.276Z,99989.25
2023-06-26T13:24:51.212Z,99992.56
2023-06-26T13:27:18.919Z,99986.00
2023-06-26T13:29:46.548Z,99993.47
2023-06-26T13:32:14.118Z,99986.34
2023-06-26T13:34:42.542Z,99981.84
2023-06-26T13:37:10.181Z,99985.50
2023-06-26T13:39:37.769Z,99994.56
2023-06-26T13:42:07.496Z,99995.25
2023-06-26T13:44:44.676Z,99999.28
2023-06-26T13:47:19.913Z,100006.03
2023-06-26T13:49:47.492Z,99999.03
2023-06-26T13:52:15.087Z,100002.97
2023-06-26T13:54:43.082Z,100008.38
2023-06-26T13:57:12.106Z,100003.88
2023-06-26T13:59:41.391Z,100004.50
2023-06-26T14:02:09.998Z,100009.09
2023-06-26T14:04:38.184Z,100006.00
2023-06-26T14:07:06.885Z,100018.66
2023-06-26T14:09:34.699Z,100021.91
2023-06-26T14:12:02.310Z,100031.88
2023-06-26T14:14:31.314Z,100036.59
2023-06-26T14:17:00.112Z,100031.06
2023-06-26T14:19:27.963Z,100034.19
2023-06-26T14:21:55.809Z,100033.84
2023-06-26T14:24:23.454Z,100035.59
2023-06-26T14:26:51.046Z,100029.28
2023-06-26T14:29:18.675Z,100037.75
2023-06-26T14:31:49.798Z,100035.63
2023-06-26T14:34:21.121Z,100026.34
2023-06-26T14:36:51.125Z,100018.84
2023-06-26T14:39:19.113Z,100021.28
2023-06-26T14:41:52.937Z,100031.81
2023-06-26T14:44:21.117Z,100029.13
2023-06-26T14:46:50.517Z,100013.09
2023-06-26T14:49:20.168Z,100012.53
2023-06-26T14:51:47.814Z,100023.91
2023-06-26T14:54:16.020Z,100014.06
2023-06-26T14:56:45.076Z,100022.50
2023-06-26T14:59:13.468Z,100016.03
2023-06-26T15:01:41.212Z,100033.25
2023-06-26T15:04:11.245Z,100033.41
2023-06-26T15:06:39.095Z,100036.56
2023-06-26T15:09:07.014Z,100038.34
2023-06-26T15:11:37.370Z,100043.72
2023-06-26T15:14:05.189Z,100042.56
2023-06-26T15:16:32.990Z,100047.94
2023-06-26T15:19:00.695Z,100041.09
2023-06-26T15:21:29.829Z,100044.34
2023-06-26T15:23:58.339Z,100044.25
2023-06-26T15:26:26.094Z,100042.34
2023-06-26T15:28:55.490Z,100047.56
2023-06-26T15:31:24.063Z,100035.66
2023-06-26T15:33:51.750Z,100047.03
2023-06-26T15:36:23.661Z,100057.75
2023-06-26T15:38:53.328Z,100057.50
2023-06-26T15:44:03.945Z,100070.22
2023-06-26T15:46:34.780Z,100052.84
2023-06-26T15:49:02.807Z,100065.25
2023-06-26T15:51:31.903Z,100068.25
2023-06-26T15:54:03.626Z,100063.72
2023-06-26T15:56:32.905Z,100064.78
2023-06-26T15:59:02.830Z,100079.72
2023-06-26T16:01:30.459Z,100072.31
2023-06-26T16:03:58.606Z,100071.91
2023-06-26T16:06:26.648Z,100069.34
2023-06-26T16:08:54.590Z,100072.25
2023-06-26T16:11:31.140Z,100072.44
2023-06-26T16:13:59.627Z,100071.66
2023-06-26T16:16:27.332Z,100073.56
2023-06-26T16:18:55.228Z,100087.06
2023-06-26T16:21:22.982Z,100091.81
2023-06-26T16:23:50.637Z,100087.25
2023-06-26T16:26:19.258Z,100079.41
2023-06-26T16:28:54.165Z,100086.53
2023-06-26T16:31:24.088Z,100104.81
2023-06-26T16:33:51.901Z,100095.63
2023-06-26T16:36:19.684Z,100092.47
2023-06-26T16:38:49.283Z,100101.13
2023-06-26T16:41:16.945Z,100087.19
2023-06-26T16:43:44.622Z,100095.81
2023-06-26T16:46:36.871Z,100096.16
2023-06-26T16:49:05.339Z,100093.56
2023-06-26T16:54:16.529Z,100090.31
2023-06-26T16:56:44.726Z,100099.19
2023-06-26T16:59:20.449Z,100101.22
2023-06-26T17:01:56.932Z,100106.06
2023-06-26T17:04:25.218Z,100105.59
2023-06-26T17:06:53.176Z,100110.88
2023-06-26T17:09:21.146Z,100117.03
2023-06-26T17:11:49.024Z,100111.25
2023-06-26T17:14:19.307Z,100121.59
2023-06-26T17:16:48.820Z,100119.25
2023-06-26T17:19:16.491Z,100132.00
2023-06-26T17:21:48.366Z,100139.06
2023-06-26T17:24:16.031Z,100122.41
2023-06-26T17:26:44.484Z,100133.88
2023-06-26T17:29:12.192Z,100144.75
2023-06-26T17:31:41.777Z,100162.03
2023-06-26T17:34:11.174Z,100151.88
2023-06-26T17:36:39.267Z,100163.03
2023-06-26T17:39:07.139Z,100155.31
2023-06-26T17:41:34.928Z,100157.78
2023-06-26T17:44:02.576Z,100157.00
2023-06-26T17:46:30.332Z,100169.38
2023-06-26T17:48:57.929Z,100183.06
2023-06-26T17:51:26.958Z,100176.84
2023-06-26T17:53:54.595Z,100188.97
2023-06-26T17:56:22.262Z,100185.47
2023-06-26T17:58:49.927Z,100199.56
2023-06-26T18:01:17.784Z,100198.28
2023-06-26T18:03:45.779Z,100197.84
2023-06-26T18:06:13.603Z,100198.72
2023-06-26T18:08:42.604Z,100200.13
2023-06-26T18:11:10.286Z,100200.72
2023-06-26T18:13:37.987Z,100204.81
2023-06-26T18:16:06.604Z,100213.88
2023-06-26T18:18:34.391Z,100218.53
2023-06-26T18:21:02.414Z,100222.38
2023-06-26T18:23:30.065Z,100216.13
2023-06-26T18:25:59.099Z,100221.09
2023-06-26T18:28:28.250Z,100215.34
2023-06-26T18:30:56.064Z,100218.38
2023-06-26T18:33:26.614Z,100230.19
2023-06-26T18:35:54.410Z,100227.72
2023-06-26T18:38:22.060Z,100230.50
2023-06-26T18:40:49.776Z,100229.66
2023-06-26T18:43:18.739Z,100227.50
2023-06-26T18:45:46.403Z,100242.31
2023-06-26T18:48:14.148Z,100241.47
2023-06-26T18:50:42.799Z,100249.44
2023-06-26T18:53:10.634Z,100245.09
2023-06-26T18:55:38.574Z,100249.47
2023-06-26T18:58:06.384Z,100249.72
2023-06-26T19:00:35.440Z,100241.50
2023-06-26T19:03:03.643Z,100248.91
2023-06-26T19:05:31.429Z,100256.03
2023-06-26T19:07:59.290Z,100251.66
2023-06-26T19:10:26.990Z,100265.06
2023-06-26T19:12:55.207Z,100273.28
2023-06-26T19:15:22.921Z,100277.66
2023-06-26T19:17:51.942Z,100275.50
2023-06-26T19:20:20.535Z,100281.22
2023-06-26T19:22:49.288Z,100277.13
2023-06-26T19:25:17.191Z,100270.00
2023-06-26T19:27:47.110Z,100288.88
2023-06-26T19:30:15.637Z,100285.06
2023-06-26T19:32:46.086Z,100288.34
2023-06-26T19:35:15.868Z,100292.72
2023-06-26T19:37:56.837Z,100295.19
2023-06-26T19:40:33.434Z,100302.28
2023-06-26T19:43:01.385Z,100297.03
2023-06-26T19:45:29.118Z,100308.22
2023-06-26T19:47:56.787Z,100312.59
2023-06-26T19:50:25.870Z,100315.06
2023-06-26T19:52:54.223Z,100321.06
2023-06-26T19:55:22.059Z,100322.69
2023-06-26T19:57:51.630Z,100322.38
2023-06-26T20:00:19.730Z,100328.94
2023-06-26T20:02:47.595Z,100334.13
2023-06-26T20:05:15.440Z,100332.22
2023-06-26T20:07:44.418Z,100334.66
2023-06-26T20:10:12.379Z,100331.91
2023-06-26T20:12:41.116Z,100332.44
2023-06-26T20:15:10.183Z,100336.25
2023-06-26T20:17:37.894Z,100341.72
2023-06-26T20:20:07.247Z,100341.97
2023-06-26T20:22:35.020Z,100353.16
2023-06-26T20:25:05.878Z,100356.72
2023-06-26T20:27:33.608Z,100357.25
2023-06-26T20:30:02.647Z,100364.59
2023-06-26T20:32:30.361Z,100364.25
2023-06-26T20:35:00.379Z,100357.41
2023-06-26T20:37:28.221Z,100367.25
2023-06-26T20:39:57.958Z,100370.72
2023-06-26T20:42:27.889Z,100370.63
2023-06-26T20:44:58.448Z,100365.22
2023-06-26T20:47:33.892Z,100364.69
2023-06-26T20:50:02.838Z,100369.59
2023-06-26T20:52:34.844Z,100367.34
2023-06-26T20:55:03.808Z,100368.91
2023-06-26T20:57:32.802Z,100369.41
2023-06-26T21:00:00.461Z,100369.94
2023-06-26T21:02:28.440Z,100369.41
2023-06-26T21:04:56.114Z,100370.16
2023-06-26T21:07:23.901Z,100372.38
2023-06-26T21:09:53.108Z,100373.03
2023-06-26T21:12:21.285Z,100378.94
2023-06-26T21:14:50.549Z,100378.28
2023-06-26T21:17:18.178Z,100376.84
2023-06-26T21:19:45.940Z,100384.97
2023-06-26T21:22:13.713Z,100392.09
2023-06-26T21:24:41.765Z,100387.94
2023-06-26T21:27:09.594Z,100400.28
2023-06-26T21:29:37.505Z,100397.78
2023-06-26T21:32:07.775Z,100403.97
2023-06-26T21:34:35.481Z,100399.09
2023-06-26T21:37:03.275Z,100403.38
2023-06-26T21:39:31.051Z,100401.13
2023-06-26T21:41:58.742Z,100403.13
2023-06-26T21:44:26.795Z,100402.44
2023-06-26T21:46:57.083Z,100412.22
2023-06-26T21:49:26.278Z,100417.16
2023-06-26T21:51:54.199Z,100420.16
2023-06-26T21:54:22.324Z,100423.19
2023-06-26T21:56:49.998Z,100428.69
2023-06-26T21:59:17.904Z,100433.75
2023-06-26T22:01:45.618Z,100423.31
2023-06-26T22:04:13.422Z,100433.16
2023-06-26T22:06:42.377Z,100436.00
2023-06-26T22:09:10.143Z,100438.00
2023-06-26T22:11:37.731Z,100438.56
2023-06-26T22:14:05.814Z,100438.22
2023-06-26T22:16:36.909Z,100448.00
2023-06-26T22:19:04.734Z,100440.72
2023-06-26T22:21:32.794Z,100445.41
2023-06-26T22:24:01.861Z,100449.50
2023-06-26T22:26:29.450Z,100445.50
2023-06-26T22:28:57.098Z,100446.09
2023-06-26T22:31:24.763Z,100443.38
2023-06-26T22:33:52.425Z,100457.41
2023-06-26T22:36:20.132Z,100455.75
2023-06-26T22:38:47.726Z,100452.28
2023-06-26T22:41:16.649Z,100461.22
2023-06-26T22:43:44.291Z,100455.09
2023-06-26T22:46:11.896Z,100454.53
2023-06-26T22:48:39.967Z,100459.56
2023-06-26T22:51:07.614Z,100457.66
2023-06-26T22:53:35.215Z,100467.16
2023-06-26T22:56:03.314Z,100456.78
2023-06-26T22:58:32.236Z,100464.69
2023-06-26T23:01:02.116Z,100459.50
2023-06-26T23:03:30.024Z,100463.53
2023-06-26T23:05:59.005Z,100459.22
2023-06-26T23:08:26.964Z,100456.09
2023-06-26T23:10:54.924Z,100463.44
2023-06-26T23:13:22.703Z,100455.00
2023-06-26T23:15:51.719Z,100453.53
2023-06-26T23:18:20.243Z,100457.81
2023-06-26T23:20:47.999Z,100456.47
2023-06-26T23:23:15.659Z,100459.06
2023-06-26T23:25:43.246Z,100460.91
2023-06-26T23:28:10.881Z,100459.38
2023-06-26T23:30:43.358Z,100464.28
2023-06-26T23:33:14.585Z,100462.47
2023-06-26T23:35:47.659Z,100461.69
2023-06-26T23:38:15.356Z,100460.88
2023-06-26T23:40:44.319Z,100455.25
2023-06-26T23:43:12.640Z,100465.78
2023-06-26T23:45:40.384Z,100456.88
2023-06-26T23:48:08.238Z,100458.22
2023-06-26T23:50:37.696Z,100470.63
2023-06-26T23:53:05.872Z,100461.88
2023-06-26T23:55:33.548Z,100461.41
2023-06-26T23:58:01.194Z,100460.16
